ADDS METAR Data INFO
IDs: Format: Raw Decoded Include TAF

Data at: 1429 UTC 20 Sep 2017

KHQZ 201350Z 16010KT 10SM BKN013 OVC017 26/23 A2991
KHQZ 201250Z 15008KT 10SM BKN013 24/22 A2991
KHQZ 201215Z 15008KT 10SM CLR 24/22 A2989
KHQZ 201150Z 15007G14KT 10SM BKN015 24/22 A2989
KHQZ 201135Z AUTO 17008KT 10SM CLR 24/22 A2989 RMK AO1 T02430219
KHQZ 201115Z AUTO 17009KT 10SM CLR 25/22 A2988 RMK AO1 T02450219
KHQZ 201055Z AUTO 17011G14KT 10SM CLR 25/22 A2987 RMK AO1 T02470217
KHQZ 201035Z AUTO 17011KT 10SM CLR 25/22 A2986 RMK AO1 T02500216
KHQZ 201015Z AUTO 16010G16KT 10SM CLR 25/22 A2986 RMK AO1 T02500216
KHQZ 200955Z AUTO 16009KT 10SM CLR 25/22 A2986 RMK AO1 T02510219
KHQZ 200935Z AUTO 16009KT 10SM CLR 25/22 A2986 RMK AO1 T02520222
KHQZ 200915Z AUTO 16008KT 10SM CLR 25/22 A2986 RMK AO1 T02540222
KHQZ 200855Z AUTO 16008G15KT 10SM CLR 26/23 A2985 RMK AO1 T02560225
KHQZ 200835Z AUTO 16009KT 10SM CLR 26/23 A2985 RMK AO1 T02600225
KHQZ 200815Z AUTO 17010KT 10SM CLR 26/23 A2986 RMK AO1 T02610225
KHQZ 200755Z AUTO 16010G15KT 10SM CLR 26/23 A2985 RMK AO1 T02610225
KHQZ 200735Z AUTO 17009KT 10SM CLR 26/23 A2985 RMK AO1 T02610227
KHQZ 200715Z AUTO 16012KT 10SM CLR 26/23 A2985 RMK AO1 T02610225
KHQZ 200655Z AUTO 16011G14KT 10SM CLR 26/22 A2985 RMK AO1 T02610222
KHQZ 200635Z AUTO 16009KT 10SM CLR 26/22 A2985 RMK AO1 T02620220
KHQZ 200615Z AUTO 15008KT 10SM CLR 26/22 A2984 RMK AO1 T02600220
KHQZ 200555Z AUTO 17005KT 10SM CLR 26/22 A2985 RMK AO1 T02600220 10325 20260 403550213
KHQZ 200535Z AUTO 16004KT 10SM CLR 27/22 A2985 RMK AO1 T02650220
KHQZ 200515Z AUTO 14006KT 10SM SCT070 SCT080 26/22 A2985 RMK AO1 T02630220
KHQZ 200455Z AUTO 14004KT 10SM CLR 26/22 A2986 RMK AO1 T02600217
KHQZ 200435Z AUTO 15003KT 10SM CLR 26/22 A2987 RMK AO1 T02620215
KHQZ 200415Z AUTO 17003KT 10SM CLR 27/21 A2988 RMK AO1 T02660214
KHQZ 200355Z AUTO 17004KT 10SM CLR 27/21 A2987 RMK AO1 T02740211
KHQZ 200335Z AUTO 17006KT 10SM CLR 27/21 A2986 RMK AO1 T02680209
KHQZ 200315Z AUTO 17004KT 10SM CLR 28/21 A2987 RMK AO1 T02810209
KHQZ 200255Z AUTO 15006KT 10SM CLR 29/21 A2986 RMK AO1 T02860206
KHQZ 200235Z AUTO 16005KT 10SM CLR 29/21 A2986 RMK AO1 T02880205
KHQZ 200215Z AUTO 15008KT 10SM CLR 29/21 A2984 RMK AO1 T02920205
KHQZ 200155Z AUTO 15007KT 10SM CLR 30/21 A2983 RMK AO1 T02960205
KHQZ 200050Z 15010KT 10SM SCT065 31/20 A2981
KHQZ 192350Z 15010KT 10SM SCT065 33/18 A2978
KHQZ 192250Z 16010G14KT 10SM SCT060 34/18 A2978
KHQZ 192150Z 14008KT 10SM SCT050 SCT065 34/19 A2979
KHQZ 192050Z 17012G16KT 10SM SCT050 SCT065 35/19 A2982
KHQZ 191950Z 17011G15KT 10SM SCT050 SCT065 34/20 A2985
KHQZ 191850Z 17010G14KT 10SM SCT042 SCT065 34/20 A2989
KHQZ 191750Z 18013KT 10SM BKN036 33/21 A2991
KHQZ 191650Z 16013G17KT 10SM BKN030 31/22 A2993
KHQZ 191550Z 19012G17KT 10SM OVC022 29/22 A2995
KHQZ 191450Z 17011KT 10SM OVC014 27/23 A2995
KHQZ 191350Z 16010G14KT 10SM OVC010 25/23 A2994
KHQZ 191250Z 15007KT 7SM OVC008 24/22 A2994
KHQZ 191150Z COR 16008KT 10SM OVC006 23/22 A2993
KHQZ 191135Z AUTO 16008KT 10SM OVC006 23/22 A2993 RMK AO1 T02300221
KHQZ 191115Z AUTO 16007KT 10SM OVC006 23/22 A2993 RMK AO1 T02270218
KHQZ 191055Z AUTO 16007KT 10SM OVC006 23/22 A2993 RMK AO1 T02250216
KHQZ 191035Z AUTO 16006KT 10SM OVC008 22/22 A2993 RMK AO1 T02230215
KHQZ 191015Z AUTO 16007KT 10SM OVC010 22/21 A2993 RMK AO1 T02210214
KHQZ 190955Z AUTO 15005KT 10SM BKN010 22/21 A2992 RMK AO1 T02180211
KHQZ 190935Z AUTO 16004KT 10SM SCT012 21/21 A2993 RMK AO1 T02140207
KHQZ 190915Z AUTO 14003KT 10SM CLR 22/21 A2992 RMK AO1 T02170208
KHQZ 190855Z AUTO 16003KT 10SM CLR 22/21 A2993 RMK AO1 T02200210
KHQZ 190835Z AUTO 14004KT 10SM CLR 22/21 A2992 RMK AO1 T02200210
KHQZ 190815Z AUTO 14004KT 10SM CLR 22/21 A2991 RMK AO1 T02200209
KHQZ 190755Z AUTO 00000KT 10SM CLR 22/21 A2992 RMK AO1 T02200208
KHQZ 190735Z AUTO 14003KT 10SM CLR 22/21 A2991 RMK AO1 T02230209
KHQZ 190715Z AUTO 14003KT 10SM CLR 23/21 A2991 RMK AO1 T02270210
KHQZ 190655Z AUTO 15004KT 10SM CLR 23/21 A2991 RMK AO1 T02300210
KHQZ 190635Z AUTO 13005KT 10SM CLR 23/21 A2992 RMK AO1 T02330210
KHQZ 190615Z AUTO 15005KT 10SM CLR 24/21 A2992 RMK AO1 T02390211
KHQZ 190555Z AUTO 15005KT 10SM CLR 24/21 A2993 RMK AO1 T02400211 10321 20240 403410186
KHQZ 190535Z AUTO 13005KT 10SM CLR 24/21 A2993 RMK AO1 T02410213
KHQZ 190515Z AUTO 14005KT 10SM CLR 25/22 A2993 RMK AO1 T02450215
KHQZ 190455Z AUTO 16004KT 10SM CLR 25/22 A2994 RMK AO1 T02480216
KHQZ 190435Z AUTO 16006KT 10SM CLR 26/22 A2994 RMK AO1 T02550217
KHQZ 190415Z AUTO 16007KT 10SM CLR 26/22 A2994 RMK AO1 T02600220
KHQZ 190355Z AUTO 15006KT 10SM CLR 26/22 A2994 RMK AO1 T02600220
KHQZ 190335Z AUTO 14006KT 10SM CLR 26/22 A2994 RMK AO1 T02600215
KHQZ 190315Z AUTO 12004KT 10SM CLR 26/21 A2994 RMK AO1 T02640207
KHQZ 190255Z AUTO 14005KT 10SM CLR 27/21 A2994 RMK AO1 T02680205
KHQZ 190235Z AUTO 14007KT 10SM CLR 28/21 A2993 RMK AO1 T02750205